sensor_id;sensor_type;location;lat;lon;timestamp;P1;durP1;ratioP1;P2;durP2;ratioP2
19848;SDS011;10085;51.120;6.956;2022-08-19T00:04:27;12.07;;;8.70;;
19848;SDS011;10085;51.120;6.956;2022-08-19T00:09:32;17.05;;;8.75;;
19848;SDS011;10085;51.120;6.956;2022-08-19T00:14:35;15.05;;;8.80;;
19848;SDS011;10085;51.120;6.956;2022-08-19T00:19:39;14.25;;;9.70;;
19848;SDS011;10085;51.120;6.956;2022-08-19T00:24:44;15.80;;;9.95;;
19848;SDS011;10085;51.120;6.956;2022-08-19T00:29:51;18.90;;;9.52;;
19848;SDS011;10085;51.120;6.956;2022-08-19T00:34:54;16.70;;;10.43;;
19848;SDS011;10085;51.120;6.956;2022-08-19T00:39:58;13.65;;;9.60;;
19848;SDS011;10085;51.120;6.956;2022-08-19T00:45:01;14.30;;;9.25;;
19848;SDS011;10085;51.120;6.956;2022-08-19T00:50:05;13.07;;;9.13;;
19848;SDS011;10085;51.120;6.956;2022-08-19T00:55:10;15.98;;;10.13;;
19848;SDS011;10085;51.120;6.956;2022-08-19T01:00:16;14.32;;;10.07;;
19848;SDS011;10085;51.120;6.956;2022-08-19T01:05:21;14.13;;;10.07;;
19848;SDS011;10085;51.120;6.956;2022-08-19T01:10:28;16.20;;;10.05;;
19848;SDS011;10085;51.120;6.956;2022-08-19T01:15:38;14.93;;;9.65;;
19848;SDS011;10085;51.120;6.956;2022-08-19T01:20:44;12.65;;;9.45;;
19848;SDS011;10085;51.120;6.956;2022-08-19T01:25:49;16.13;;;9.63;;
19848;SDS011;10085;51.120;6.956;2022-08-19T01:30:54;14.88;;;9.63;;
19848;SDS011;10085;51.120;6.956;2022-08-19T01:36:02;16.33;;;9.88;;
19848;SDS011;10085;51.120;6.956;2022-08-19T01:41:08;15.07;;;10.45;;
19848;SDS011;10085;51.120;6.956;2022-08-19T01:46:11;15.73;;;10.85;;
19848;SDS011;10085;51.120;6.956;2022-08-19T01:51:14;14.70;;;10.38;;
19848;SDS011;10085;51.120;6.956;2022-08-19T01:56:19;15.77;;;10.88;;
19848;SDS011;10085;51.120;6.956;2022-08-19T02:01:22;17.77;;;11.68;;
19848;SDS011;10085;51.120;6.956;2022-08-19T02:06:31;18.77;;;11.52;;
19848;SDS011;10085;51.120;6.956;2022-08-19T02:11:36;19.25;;;12.07;;
19848;SDS011;10085;51.120;6.956;2022-08-19T02:16:40;20.00;;;11.98;;
19848;SDS011;10085;51.120;6.956;2022-08-19T02:21:43;17.90;;;11.13;;
19848;SDS011;10085;51.120;6.956;2022-08-19T02:26:47;17.90;;;11.20;;
19848;SDS011;10085;51.120;6.956;2022-08-19T02:31:49;21.33;;;11.52;;
19848;SDS011;10085;51.120;6.956;2022-08-19T02:36:52;17.42;;;11.73;;
19848;SDS011;10085;51.120;6.956;2022-08-19T02:41:56;18.25;;;11.25;;
19848;SDS011;10085;51.120;6.956;2022-08-19T02:47:00;17.80;;;11.20;;
19848;SDS011;10085;51.120;6.956;2022-08-19T02:52:04;18.60;;;11.95;;
19848;SDS011;10085;51.120;6.956;2022-08-19T02:57:08;19.60;;;11.38;;
19848;SDS011;10085;51.120;6.956;2022-08-19T03:02:10;21.48;;;12.45;;
19848;SDS011;10085;51.120;6.956;2022-08-19T03:07:14;21.10;;;12.60;;
19848;SDS011;10085;51.120;6.956;2022-08-19T03:12:19;19.40;;;12.35;;
19848;SDS011;10085;51.120;6.956;2022-08-19T03:17:21;18.17;;;11.52;;
19848;SDS011;10085;51.120;6.956;2022-08-19T03:22:24;20.50;;;12.20;;
19848;SDS011;10085;51.120;6.956;2022-08-19T03:27:29;24.13;;;13.48;;
19848;SDS011;10085;51.120;6.956;2022-08-19T03:32:35;18.42;;;11.50;;
19848;SDS011;10085;51.120;6.956;2022-08-19T03:37:45;21.77;;;12.18;;
19848;SDS011;10085;51.120;6.956;2022-08-19T03:42:49;20.15;;;12.57;;
19848;SDS011;10085;51.120;6.956;2022-08-19T03:47:52;23.50;;;12.57;;
19848;SDS011;10085;51.120;6.956;2022-08-19T03:52:55;21.17;;;13.10;;
19848;SDS011;10085;51.120;6.956;2022-08-19T03:57:59;20.13;;;12.35;;
19848;SDS011;10085;51.120;6.956;2022-08-19T04:03:02;20.98;;;12.55;;
19848;SDS011;10085;51.120;6.956;2022-08-19T04:08:05;20.10;;;12.82;;
19848;SDS011;10085;51.120;6.956;2022-08-19T04:13:15;24.50;;;12.68;;
19848;SDS011;10085;51.120;6.956;2022-08-19T04:18:19;22.95;;;12.80;;
19848;SDS011;10085;51.120;6.956;2022-08-19T04:23:21;19.70;;;12.20;;
19848;SDS011;10085;51.120;6.956;2022-08-19T04:28:26;19.30;;;12.00;;
19848;SDS011;10085;51.120;6.956;2022-08-19T04:33:28;21.95;;;12.25;;
19848;SDS011;10085;51.120;6.956;2022-08-19T04:38:31;18.23;;;12.07;;
19848;SDS011;10085;51.120;6.956;2022-08-19T04:43:37;25.95;;;14.38;;
19848;SDS011;10085;51.120;6.956;2022-08-19T04:48:40;29.70;;;16.40;;
19848;SDS011;10085;51.120;6.956;2022-08-19T04:53:49;30.77;;;16.05;;
19848;SDS011;10085;51.120;6.956;2022-08-19T04:58:55;31.95;;;18.67;;
19848;SDS011;10085;51.120;6.956;2022-08-19T05:03:58;32.38;;;17.63;;
19848;SDS011;10085;51.120;6.956;2022-08-19T05:09:02;28.80;;;16.05;;
19848;SDS011;10085;51.120;6.956;2022-08-19T05:14:08;27.35;;;15.60;;
19848;SDS011;10085;51.120;6.956;2022-08-19T05:19:13;31.65;;;17.10;;
19848;SDS011;10085;51.120;6.956;2022-08-19T05:24:34;26.70;;;16.15;;
19848;SDS011;10085;51.120;6.956;2022-08-19T05:29:53;29.95;;;15.02;;
19848;SDS011;10085;51.120;6.956;2022-08-19T05:34:55;28.20;;;17.30;;
19848;SDS011;10085;51.120;6.956;2022-08-19T05:39:58;22.67;;;14.73;;
19848;SDS011;10085;51.120;6.956;2022-08-19T05:45:03;25.95;;;15.13;;
19848;SDS011;10085;51.120;6.956;2022-08-19T05:50:06;24.98;;;14.57;;
19848;SDS011;10085;51.120;6.956;2022-08-19T05:55:10;28.67;;;15.73;;
19848;SDS011;10085;51.120;6.956;2022-08-19T06:00:15;27.50;;;15.80;;
19848;SDS011;10085;51.120;6.956;2022-08-19T06:05:24;32.53;;;17.92;;
19848;SDS011;10085;51.120;6.956;2022-08-19T06:10:27;26.13;;;14.82;;
19848;SDS011;10085;51.120;6.956;2022-08-19T06:15:33;38.35;;;21.48;;
19848;SDS011;10085;51.120;6.956;2022-08-19T06:20:36;23.20;;;12.70;;
19848;SDS011;10085;51.120;6.956;2022-08-19T06:25:55;33.53;;;17.73;;
19848;SDS011;10085;51.120;6.956;2022-08-19T06:31:00;36.65;;;19.75;;
19848;SDS011;10085;51.120;6.956;2022-08-19T06:41:18;40.83;;;22.67;;
19848;SDS011;10085;51.120;6.956;2022-08-19T06:46:23;30.80;;;17.38;;
19848;SDS011;10085;51.120;6.956;2022-08-19T06:51:26;41.50;;;22.27;;
19848;SDS011;10085;51.120;6.956;2022-08-19T06:56:32;45.78;;;24.58;;
19848;SDS011;10085;51.120;6.956;2022-08-19T07:01:38;42.97;;;23.95;;
19848;SDS011;10085;51.120;6.956;2022-08-19T07:06:42;46.72;;;25.60;;
19848;SDS011;10085;51.120;6.956;2022-08-19T07:11:55;33.92;;;18.35;;
19848;SDS011;10085;51.120;6.956;2022-08-19T07:16:59;54.17;;;28.58;;
19848;SDS011;10085;51.120;6.956;2022-08-19T07:22:03;46.22;;;23.95;;
19848;SDS011;10085;51.120;6.956;2022-08-19T07:27:07;25.13;;;16.05;;
19848;SDS011;10085;51.120;6.956;2022-08-19T07:32:17;37.47;;;20.50;;
19848;SDS011;10085;51.120;6.956;2022-08-19T07:37:20;29.73;;;17.65;;
19848;SDS011;10085;51.120;6.956;2022-08-19T07:42:22;55.35;;;26.02;;
19848;SDS011;10085;51.120;6.956;2022-08-19T07:47:27;32.00;;;18.70;;
19848;SDS011;10085;51.120;6.956;2022-08-19T07:52:50;37.45;;;22.42;;
19848;SDS011;10085;51.120;6.956;2022-08-19T07:57:53;26.60;;;16.20;;
19848;SDS011;10085;51.120;6.956;2022-08-19T08:02:57;31.42;;;18.20;;
19848;SDS011;10085;51.120;6.956;2022-08-19T08:08:00;28.17;;;16.17;;
19848;SDS011;10085;51.120;6.956;2022-08-19T08:13:28;25.58;;;15.57;;
19848;SDS011;10085;51.120;6.956;2022-08-19T08:18:33;40.17;;;21.58;;
19848;SDS011;10085;51.120;6.956;2022-08-19T08:23:42;27.67;;;16.10;;
19848;SDS011;10085;51.120;6.956;2022-08-19T08:28:45;28.23;;;17.48;;
19848;SDS011;10085;51.120;6.956;2022-08-19T08:33:51;40.92;;;23.85;;
19848;SDS011;10085;51.120;6.956;2022-08-19T08:38:54;37.90;;;21.95;;
19848;SDS011;10085;51.120;6.956;2022-08-19T08:43:58;46.38;;;24.75;;
19848;SDS011;10085;51.120;6.956;2022-08-19T08:49:10;27.38;;;16.75;;
19848;SDS011;10085;51.120;6.956;2022-08-19T08:54:22;28.75;;;16.50;;
19848;SDS011;10085;51.120;6.956;2022-08-19T08:59:28;25.73;;;15.95;;
19848;SDS011;10085;51.120;6.956;2022-08-19T09:04:34;31.17;;;14.50;;
19848;SDS011;10085;51.120;6.956;2022-08-19T09:09:40;29.63;;;16.88;;
19848;SDS011;10085;51.120;6.956;2022-08-19T09:14:46;24.92;;;15.05;;
19848;SDS011;10085;51.120;6.956;2022-08-19T09:19:54;22.50;;;13.77;;
19848;SDS011;10085;51.120;6.956;2022-08-19T09:24:59;21.30;;;13.00;;
19848;SDS011;10085;51.120;6.956;2022-08-19T09:30:02;24.33;;;14.05;;
19848;SDS011;10085;51.120;6.956;2022-08-19T09:35:07;21.00;;;12.75;;
19848;SDS011;10085;51.120;6.956;2022-08-19T09:40:11;19.17;;;12.45;;
19848;SDS011;10085;51.120;6.956;2022-08-19T09:45:16;24.08;;;13.63;;
19848;SDS011;10085;51.120;6.956;2022-08-19T09:50:24;22.20;;;14.57;;
19848;SDS011;10085;51.120;6.956;2022-08-19T09:55:27;21.92;;;14.57;;
19848;SDS011;10085;51.120;6.956;2022-08-19T10:00:32;24.10;;;14.77;;
19848;SDS011;10085;51.120;6.956;2022-08-19T10:05:36;25.35;;;15.27;;
19848;SDS011;10085;51.120;6.956;2022-08-19T10:10:56;24.65;;;15.00;;
19848;SDS011;10085;51.120;6.956;2022-08-19T10:16:20;24.98;;;13.55;;
19848;SDS011;10085;51.120;6.956;2022-08-19T10:21:31;24.13;;;14.00;;
19848;SDS011;10085;51.120;6.956;2022-08-19T10:26:38;28.52;;;15.65;;
19848;SDS011;10085;51.120;6.956;2022-08-19T10:31:43;25.48;;;14.07;;
19848;SDS011;10085;51.120;6.956;2022-08-19T10:37:04;25.15;;;15.00;;
19848;SDS011;10085;51.120;6.956;2022-08-19T10:42:14;18.80;;;12.48;;
19848;SDS011;10085;51.120;6.956;2022-08-19T10:47:18;27.50;;;15.88;;
19848;SDS011;10085;51.120;6.956;2022-08-19T10:52:27;26.10;;;13.63;;
19848;SDS011;10085;51.120;6.956;2022-08-19T10:57:39;23.85;;;14.20;;
19848;SDS011;10085;51.120;6.956;2022-08-19T11:03:02;22.13;;;13.35;;
19848;SDS011;10085;51.120;6.956;2022-08-19T11:08:06;21.05;;;12.98;;
19848;SDS011;10085;51.120;6.956;2022-08-19T11:13:24;20.23;;;12.32;;
19848;SDS011;10085;51.120;6.956;2022-08-19T11:18:26;19.55;;;12.32;;
19848;SDS011;10085;51.120;6.956;2022-08-19T11:23:31;19.92;;;11.93;;
19848;SDS011;10085;51.120;6.956;2022-08-19T11:28:34;20.80;;;12.73;;
19848;SDS011;10085;51.120;6.956;2022-08-19T11:33:36;18.42;;;11.98;;
19848;SDS011;10085;51.120;6.956;2022-08-19T11:38:41;18.80;;;12.13;;
19848;SDS011;10085;51.120;6.956;2022-08-19T11:43:43;17.02;;;11.85;;
19848;SDS011;10085;51.120;6.956;2022-08-19T11:48:46;17.20;;;12.05;;
19848;SDS011;10085;51.120;6.956;2022-08-19T11:53:52;17.63;;;11.70;;
19848;SDS011;10085;51.120;6.956;2022-08-19T11:58:55;16.08;;;10.93;;
19848;SDS011;10085;51.120;6.956;2022-08-19T12:03:58;15.52;;;10.88;;
19848;SDS011;10085;51.120;6.956;2022-08-19T12:09:04;13.23;;;10.23;;
19848;SDS011;10085;51.120;6.956;2022-08-19T12:14:09;12.77;;;9.15;;
19848;SDS011;10085;51.120;6.956;2022-08-19T12:19:15;17.02;;;10.23;;
19848;SDS011;10085;51.120;6.956;2022-08-19T12:24:24;17.95;;;10.45;;
19848;SDS011;10085;51.120;6.956;2022-08-19T12:29:27;14.23;;;8.77;;
19848;SDS011;10085;51.120;6.956;2022-08-19T12:34:31;12.70;;;8.23;;
19848;SDS011;10085;51.120;6.956;2022-08-19T12:39:37;12.65;;;8.57;;
19848;SDS011;10085;51.120;6.956;2022-08-19T12:44:41;12.15;;;7.70;;
19848;SDS011;10085;51.120;6.956;2022-08-19T12:49:45;11.50;;;7.93;;
19848;SDS011;10085;51.120;6.956;2022-08-19T12:54:57;12.48;;;8.20;;
19848;SDS011;10085;51.120;6.956;2022-08-19T13:00:00;12.25;;;8.65;;
19848;SDS011;10085;51.120;6.956;2022-08-19T13:05:08;12.20;;;8.15;;
19848;SDS011;10085;51.120;6.956;2022-08-19T13:10:15;10.93;;;7.75;;
19848;SDS011;10085;51.120;6.956;2022-08-19T13:15:19;11.75;;;7.78;;
19848;SDS011;10085;51.120;6.956;2022-08-19T13:20:24;11.43;;;7.85;;
19848;SDS011;10085;51.120;6.956;2022-08-19T13:25:29;10.38;;;7.45;;
19848;SDS011;10085;51.120;6.956;2022-08-19T13:30:32;10.70;;;7.85;;
19848;SDS011;10085;51.120;6.956;2022-08-19T13:35:56;11.45;;;7.53;;
19848;SDS011;10085;51.120;6.956;2022-08-19T13:41:05;11.00;;;6.90;;
19848;SDS011;10085;51.120;6.956;2022-08-19T13:46:15;10.52;;;7.50;;
19848;SDS011;10085;51.120;6.956;2022-08-19T13:51:17;11.60;;;7.13;;
19848;SDS011;10085;51.120;6.956;2022-08-19T13:56:21;11.40;;;6.68;;
19848;SDS011;10085;51.120;6.956;2022-08-19T14:01:27;8.38;;;6.28;;
19848;SDS011;10085;51.120;6.956;2022-08-19T14:06:30;10.32;;;6.72;;
19848;SDS011;10085;51.120;6.956;2022-08-19T14:11:34;11.80;;;6.68;;
19848;SDS011;10085;51.120;6.956;2022-08-19T14:16:37;8.27;;;6.00;;
19848;SDS011;10085;51.120;6.956;2022-08-19T14:21:40;8.32;;;6.13;;
19848;SDS011;10085;51.120;6.956;2022-08-19T14:26:44;9.57;;;6.38;;
19848;SDS011;10085;51.120;6.956;2022-08-19T14:31:47;11.82;;;6.60;;
19848;SDS011;10085;51.120;6.956;2022-08-19T14:36:50;8.60;;;5.65;;
19848;SDS011;10085;51.120;6.956;2022-08-19T14:41:54;10.40;;;6.70;;
19848;SDS011;10085;51.120;6.956;2022-08-19T14:46:57;8.60;;;5.80;;
19848;SDS011;10085;51.120;6.956;2022-08-19T14:52:00;8.88;;;6.25;;
19848;SDS011;10085;51.120;6.956;2022-08-19T14:57:05;9.23;;;6.63;;
19848;SDS011;10085;51.120;6.956;2022-08-19T15:02:08;12.68;;;8.68;;
19848;SDS011;10085;51.120;6.956;2022-08-19T15:07:30;15.23;;;8.75;;
19848;SDS011;10085;51.120;6.956;2022-08-19T15:12:35;10.90;;;6.90;;
19848;SDS011;10085;51.120;6.956;2022-08-19T15:17:38;8.02;;;5.85;;
19848;SDS011;10085;51.120;6.956;2022-08-19T15:22:46;9.55;;;6.20;;
19848;SDS011;10085;51.120;6.956;2022-08-19T15:27:50;10.18;;;5.45;;
19848;SDS011;10085;51.120;6.956;2022-08-19T15:32:54;7.38;;;5.63;;
19848;SDS011;10085;51.120;6.956;2022-08-19T15:37:57;6.28;;;5.05;;
19848;SDS011;10085;51.120;6.956;2022-08-19T15:43:01;7.32;;;4.95;;
19848;SDS011;10085;51.120;6.956;2022-08-19T15:48:04;6.38;;;4.75;;
19848;SDS011;10085;51.120;6.956;2022-08-19T15:53:08;6.45;;;4.90;;
19848;SDS011;10085;51.120;6.956;2022-08-19T15:58:13;9.82;;;4.90;;
19848;SDS011;10085;51.120;6.956;2022-08-19T16:03:34;8.13;;;4.20;;
19848;SDS011;10085;51.120;6.956;2022-08-19T16:08:55;6.30;;;4.25;;
19848;SDS011;10085;51.120;6.956;2022-08-19T16:14:01;6.18;;;4.25;;
19848;SDS011;10085;51.120;6.956;2022-08-19T16:19:04;7.82;;;4.65;;
19848;SDS011;10085;51.120;6.956;2022-08-19T16:24:13;6.50;;;4.38;;
19848;SDS011;10085;51.120;6.956;2022-08-19T16:29:18;5.78;;;4.78;;
19848;SDS011;10085;51.120;6.956;2022-08-19T16:34:35;7.20;;;4.45;;
19848;SDS011;10085;51.120;6.956;2022-08-19T16:39:39;5.65;;;4.22;;
19848;SDS011;10085;51.120;6.956;2022-08-19T16:44:46;7.85;;;4.35;;
19848;SDS011;10085;51.120;6.956;2022-08-19T16:49:48;5.55;;;4.40;;
19848;SDS011;10085;51.120;6.956;2022-08-19T16:54:55;6.30;;;4.60;;
19848;SDS011;10085;51.120;6.956;2022-08-19T16:59:59;12.93;;;4.60;;
19848;SDS011;10085;51.120;6.956;2022-08-19T17:05:06;9.43;;;4.63;;
19848;SDS011;10085;51.120;6.956;2022-08-19T17:10:10;7.00;;;4.05;;
19848;SDS011;10085;51.120;6.956;2022-08-19T17:15:14;7.95;;;4.55;;
19848;SDS011;10085;51.120;6.956;2022-08-19T17:20:16;6.78;;;4.18;;
19848;SDS011;10085;51.120;6.956;2022-08-19T17:25:19;5.25;;;4.00;;
19848;SDS011;10085;51.120;6.956;2022-08-19T17:30:24;5.40;;;3.88;;
19848;SDS011;10085;51.120;6.956;2022-08-19T17:35:27;5.10;;;3.58;;
19848;SDS011;10085;51.120;6.956;2022-08-19T17:40:29;6.18;;;3.97;;
19848;SDS011;10085;51.120;6.956;2022-08-19T17:45:34;7.47;;;3.42;;
19848;SDS011;10085;51.120;6.956;2022-08-19T17:50:37;6.50;;;3.90;;
19848;SDS011;10085;51.120;6.956;2022-08-19T17:55:40;5.28;;;3.78;;
19848;SDS011;10085;51.120;6.956;2022-08-19T18:00:49;4.45;;;3.22;;
19848;SDS011;10085;51.120;6.956;2022-08-19T18:05:55;6.70;;;3.70;;
19848;SDS011;10085;51.120;6.956;2022-08-19T18:10:58;7.95;;;4.00;;
19848;SDS011;10085;51.120;6.956;2022-08-19T18:16:03;14.93;;;4.22;;
19848;SDS011;10085;51.120;6.956;2022-08-19T18:21:07;11.50;;;4.40;;
19848;SDS011;10085;51.120;6.956;2022-08-19T18:26:10;9.90;;;4.10;;
19848;SDS011;10085;51.120;6.956;2022-08-19T18:31:14;6.43;;;3.97;;
19848;SDS011;10085;51.120;6.956;2022-08-19T18:36:17;9.02;;;3.83;;
19848;SDS011;10085;51.120;6.956;2022-08-19T18:41:40;8.15;;;4.07;;
19848;SDS011;10085;51.120;6.956;2022-08-19T18:47:02;5.13;;;3.75;;
19848;SDS011;10085;51.120;6.956;2022-08-19T18:52:22;7.53;;;3.95;;
19848;SDS011;10085;51.120;6.956;2022-08-19T18:57:27;5.80;;;3.63;;
19848;SDS011;10085;51.120;6.956;2022-08-19T19:02:34;6.25;;;4.43;;
19848;SDS011;10085;51.120;6.956;2022-08-19T19:07:38;7.20;;;4.20;;
19848;SDS011;10085;51.120;6.956;2022-08-19T19:12:42;9.27;;;4.30;;
19848;SDS011;10085;51.120;6.956;2022-08-19T19:17:47;4.53;;;3.47;;
19848;SDS011;10085;51.120;6.956;2022-08-19T19:22:50;6.88;;;4.85;;
19848;SDS011;10085;51.120;6.956;2022-08-19T19:27:57;7.03;;;4.10;;
19848;SDS011;10085;51.120;6.956;2022-08-19T19:33:01;7.30;;;4.63;;
19848;SDS011;10085;51.120;6.956;2022-08-19T19:38:03;10.38;;;5.30;;
19848;SDS011;10085;51.120;6.956;2022-08-19T19:43:06;8.73;;;5.35;;
19848;SDS011;10085;51.120;6.956;2022-08-19T19:48:10;8.40;;;4.88;;
19848;SDS011;10085;51.120;6.956;2022-08-19T19:53:16;8.98;;;5.28;;
19848;SDS011;10085;51.120;6.956;2022-08-19T19:58:19;8.05;;;5.00;;
19848;SDS011;10085;51.120;6.956;2022-08-19T20:03:30;8.60;;;5.43;;
19848;SDS011;10085;51.120;6.956;2022-08-19T20:08:33;9.85;;;5.32;;
19848;SDS011;10085;51.120;6.956;2022-08-19T20:13:54;9.13;;;5.40;;
19848;SDS011;10085;51.120;6.956;2022-08-19T20:18:58;9.55;;;5.72;;
19848;SDS011;10085;51.120;6.956;2022-08-19T20:24:03;9.13;;;5.47;;
19848;SDS011;10085;51.120;6.956;2022-08-19T20:29:10;9.23;;;5.63;;
19848;SDS011;10085;51.120;6.956;2022-08-19T20:34:34;8.68;;;5.15;;
19848;SDS011;10085;51.120;6.956;2022-08-19T20:39:37;8.85;;;4.95;;
19848;SDS011;10085;51.120;6.956;2022-08-19T20:44:40;10.60;;;4.80;;
19848;SDS011;10085;51.120;6.956;2022-08-19T20:49:44;9.80;;;5.40;;
19848;SDS011;10085;51.120;6.956;2022-08-19T20:54:47;7.88;;;5.18;;
19848;SDS011;10085;51.120;6.956;2022-08-19T20:59:50;9.15;;;5.00;;
19848;SDS011;10085;51.120;6.956;2022-08-19T21:04:54;8.70;;;4.65;;
19848;SDS011;10085;51.120;6.956;2022-08-19T21:10:00;6.00;;;4.28;;
19848;SDS011;10085;51.120;6.956;2022-08-19T21:15:05;8.75;;;4.10;;
19848;SDS011;10085;51.120;6.956;2022-08-19T21:20:10;5.28;;;3.75;;
19848;SDS011;10085;51.120;6.956;2022-08-19T21:25:14;6.55;;;3.75;;
19848;SDS011;10085;51.120;6.956;2022-08-19T21:30:17;5.95;;;3.97;;
19848;SDS011;10085;51.120;6.956;2022-08-19T21:35:22;4.43;;;3.20;;
19848;SDS011;10085;51.120;6.956;2022-08-19T21:40:24;3.90;;;2.60;;
19848;SDS011;10085;51.120;6.956;2022-08-19T21:45:28;5.18;;;2.63;;
19848;SDS011;10085;51.120;6.956;2022-08-19T21:50:32;4.57;;;2.50;;
19848;SDS011;10085;51.120;6.956;2022-08-19T21:55:35;3.30;;;2.50;;
19848;SDS011;10085;51.120;6.956;2022-08-19T22:00:38;4.95;;;3.13;;
19848;SDS011;10085;51.120;6.956;2022-08-19T22:05:43;3.88;;;2.40;;
19848;SDS011;10085;51.120;6.956;2022-08-19T22:10:46;4.45;;;2.40;;
19848;SDS011;10085;51.120;6.956;2022-08-19T22:15:49;3.03;;;2.20;;
19848;SDS011;10085;51.120;6.956;2022-08-19T22:20:54;3.17;;;2.15;;
19848;SDS011;10085;51.120;6.956;2022-08-19T22:25:56;2.47;;;1.90;;
19848;SDS011;10085;51.120;6.956;2022-08-19T22:30:59;4.72;;;2.15;;
19848;SDS011;10085;51.120;6.956;2022-08-19T22:36:05;3.60;;;2.00;;
19848;SDS011;10085;51.120;6.956;2022-08-19T22:41:08;2.40;;;1.85;;
19848;SDS011;10085;51.120;6.956;2022-08-19T22:46:12;3.80;;;2.15;;
19848;SDS011;10085;51.120;6.956;2022-08-19T22:51:19;7.35;;;2.30;;
19848;SDS011;10085;51.120;6.956;2022-08-19T22:56:39;3.45;;;2.15;;
19848;SDS011;10085;51.120;6.956;2022-08-19T23:01:43;4.10;;;2.10;;
19848;SDS011;10085;51.120;6.956;2022-08-19T23:06:48;3.35;;;2.28;;
19848;SDS011;10085;51.120;6.956;2022-08-19T23:11:53;4.40;;;2.60;;
19848;SDS011;10085;51.120;6.956;2022-08-19T23:16:55;3.83;;;2.05;;
19848;SDS011;10085;51.120;6.956;2022-08-19T23:22:00;4.30;;;2.83;;
19848;SDS011;10085;51.120;6.956;2022-08-19T23:27:05;6.75;;;2.72;;
19848;SDS011;10085;51.120;6.956;2022-08-19T23:32:25;4.55;;;3.30;;
19848;SDS011;10085;51.120;6.956;2022-08-19T23:37:29;9.07;;;3.85;;
19848;SDS011;10085;51.120;6.956;2022-08-19T23:42:32;6.22;;;3.78;;
19848;SDS011;10085;51.120;6.956;2022-08-19T23:47:35;6.78;;;2.92;;
19848;SDS011;10085;51.120;6.956;2022-08-19T23:52:43;7.43;;;3.13;;
19848;SDS011;10085;51.120;6.956;2022-08-19T23:57:47;6.70;;;3.63;;
